createdAt,value
2023-04-13T00:03:40.327Z,11.24
2023-04-13T00:08:42.866Z,11.16
2023-04-13T00:13:47.733Z,11.09
2023-04-13T00:18:48.318Z,11.12
2023-04-13T00:23:48.958Z,11.02
2023-04-13T00:28:51.363Z,11.02
2023-04-13T00:33:52.114Z,10.92
2023-04-13T00:38:54.641Z,10.88
2023-04-13T00:43:59.010Z,10.90
2023-04-13T00:49:01.742Z,10.92
2023-04-13T00:54:02.617Z,10.89
2023-04-13T00:59:05.065Z,10.92
2023-04-13T01:04:05.817Z,10.78
2023-04-13T01:09:11.135Z,10.77
2023-04-13T01:14:19.177Z,10.82
2023-04-13T01:19:29.351Z,10.79
2023-04-13T01:24:37.412Z,10.86
2023-04-13T01:29:40.228Z,10.87
2023-04-13T01:34:41.622Z,10.93
2023-04-13T01:39:42.239Z,10.92
2023-04-13T01:44:53.936Z,10.81
2023-04-13T01:50:00.839Z,10.83
2023-04-13T01:55:09.245Z,10.83
2023-04-13T02:00:14.879Z,10.84
2023-04-13T02:05:18.128Z,10.83
2023-04-13T02:10:18.875Z,10.75
2023-04-13T02:15:21.641Z,10.70
2023-04-13T02:20:22.264Z,10.65
2023-04-13T02:25:23.905Z,10.68
2023-04-13T02:30:25.954Z,10.65
2023-04-13T02:35:27.358Z,10.63
2023-04-13T02:40:28.841Z,10.55
2023-04-13T02:45:31.605Z,10.50
2023-04-13T02:50:32.393Z,10.48
2023-04-13T02:55:39.208Z,10.39
2023-04-13T03:00:45.820Z,10.26
2023-04-13T03:05:50.695Z,10.24
2023-04-13T03:10:55.021Z,10.25
2023-04-13T03:16:00.380Z,10.13
2023-04-13T03:21:01.532Z,10.19
2023-04-13T03:26:10.745Z,10.15
2023-04-13T03:31:14.431Z,10.24
2023-04-13T03:36:15.454Z,10.16
2023-04-13T03:41:16.219Z,10.15
2023-04-13T03:46:21.936Z,10.10
2023-04-13T03:51:23.316Z,10.17
2023-04-13T03:56:26.725Z,10.07
2023-04-13T04:01:29.583Z,10.03
2023-04-13T04:06:31.299Z,9.94
2023-04-13T04:11:45.829Z,9.90
2023-04-13T04:16:50.919Z,9.81
2023-04-13T04:21:53.001Z,10.05
2023-04-13T04:26:58.005Z,10.03
2023-04-13T04:32:00.073Z,10.05
2023-04-13T04:42:10.911Z,9.71
2023-04-13T04:47:16.848Z,9.71
2023-04-13T04:52:34.233Z,9.77
2023-04-13T04:57:37.023Z,9.63
2023-04-13T05:02:41.419Z,9.76
2023-04-13T05:07:46.086Z,9.78
2023-04-13T05:12:48.301Z,9.89
2023-04-13T05:17:51.171Z,9.94
2023-04-13T05:22:53.543Z,9.90
2023-04-13T05:27:54.159Z,9.97
2023-04-13T05:32:57.110Z,9.79
2023-04-13T05:38:00.145Z,9.86
2023-04-13T05:43:04.342Z,9.81
2023-04-13T05:48:11.936Z,9.69
2023-04-13T05:53:12.711Z,9.69
2023-04-13T05:58:20.164Z,9.69
2023-04-13T06:03:27.610Z,9.59
2023-04-13T06:08:32.439Z,9.63
2023-04-13T06:13:34.025Z,9.42
2023-04-13T06:18:36.066Z,9.42
2023-04-13T06:23:37.582Z,9.50
2023-04-13T06:28:46.995Z,9.57
2023-04-13T06:33:51.688Z,9.59
2023-04-13T06:38:58.170Z,9.62
2023-04-13T06:43:59.379Z,9.56
2023-04-13T06:49:07.465Z,9.63
2023-04-13T06:54:09.116Z,9.59
2023-04-13T06:59:14.614Z,9.55
2023-04-13T07:04:16.672Z,9.65
2023-04-13T07:09:19.825Z,9.76
2023-04-13T07:14:20.721Z,10.10
2023-04-13T07:19:23.766Z,10.30
2023-04-13T07:24:25.112Z,10.34
2023-04-13T07:29:25.985Z,10.23
2023-04-13T07:34:32.926Z,10.59
2023-04-13T07:39:34.352Z,10.67
2023-04-13T07:44:36.021Z,10.40
2023-04-13T07:49:38.733Z,10.33
2023-04-13T07:54:43.701Z,10.60
2023-04-13T07:59:45.965Z,10.65
2023-04-13T08:04:49.675Z,10.92
2023-04-13T08:09:56.107Z,10.75
2023-04-13T08:14:57.126Z,10.54
2023-04-13T08:19:59.286Z,10.86
2023-04-13T08:24:59.943Z,10.65
2023-04-13T08:30:03.329Z,10.78
2023-04-13T08:35:15.979Z,10.83
2023-04-13T08:40:20.027Z,11.02
2023-04-13T08:45:21.668Z,10.99
2023-04-13T08:50:26.927Z,11.33
2023-04-13T08:55:29.411Z,11.59
2023-04-13T09:00:31.296Z,11.70
2023-04-13T09:05:37.826Z,11.65
2023-04-13T09:10:40.595Z,12.04
2023-04-13T09:15:49.130Z,11.75
2023-04-13T09:21:00.794Z,11.94
2023-04-13T09:26:06.013Z,11.92
2023-04-13T09:31:06.960Z,12.14
2023-04-13T09:36:13.266Z,11.79
2023-04-13T09:41:13.986Z,11.57
2023-04-13T09:46:15.346Z,11.55
2023-04-13T09:51:17.950Z,11.53
2023-04-13T09:56:20.769Z,11.54
2023-04-13T10:01:21.876Z,11.51
2023-04-13T10:06:24.364Z,11.69
2023-04-13T10:11:26.341Z,11.73
2023-04-13T10:16:58.788Z,11.96
2023-04-13T10:22:01.278Z,12.54
2023-04-13T10:27:12.335Z,13.26
2023-04-13T10:32:23.042Z,13.31
2023-04-13T10:37:28.634Z,12.70
2023-04-13T10:47:47.225Z,12.59
2023-04-13T10:53:00.808Z,12.42
2023-04-13T10:58:04.357Z,12.18
2023-04-13T11:03:06.625Z,12.60
2023-04-13T11:08:08.934Z,12.77
2023-04-13T11:13:09.532Z,13.29
2023-04-13T11:18:10.863Z,13.54
2023-04-13T11:23:18.182Z,13.65
2023-04-13T11:28:18.914Z,12.95
2023-04-13T11:33:25.581Z,13.26
2023-04-13T11:38:28.048Z,13.49
2023-04-13T11:43:28.859Z,13.38
2023-04-13T11:48:29.627Z,13.25
2023-04-13T11:53:33.652Z,14.79
2023-04-13T11:58:34.567Z,14.02
2023-04-13T12:03:47.685Z,13.83
2023-04-13T12:09:09.067Z,13.79
2023-04-13T12:14:46.000Z,13.42
2023-04-13T12:19:43.365Z,13.92
2023-04-13T12:24:45.997Z,13.75
2023-04-13T12:29:46.848Z,13.81
2023-04-13T12:34:48.832Z,13.86
2023-04-13T12:39:51.906Z,14.05
2023-04-13T12:44:52.484Z,14.07
2023-04-13T12:49:53.058Z,14.01
2023-04-13T12:54:55.122Z,13.61
2023-04-13T12:59:56.153Z,13.53
2023-04-13T13:04:57.131Z,13.22
2023-04-13T13:10:01.074Z,13.73
2023-04-13T13:15:03.093Z,14.31
2023-04-13T13:20:03.853Z,13.60
2023-04-13T13:25:08.428Z,13.46
2023-04-13T13:30:10.099Z,13.15
2023-04-13T13:35:11.140Z,13.15
2023-04-13T13:40:13.837Z,13.48
2023-04-13T13:45:14.431Z,13.76
2023-04-13T13:50:15.044Z,14.20
2023-04-13T13:55:22.908Z,15.09
2023-04-13T14:00:23.873Z,14.60
2023-04-13T14:05:24.760Z,14.39
2023-04-13T14:10:26.750Z,14.29
2023-04-13T14:15:27.472Z,14.10
2023-04-13T14:20:28.121Z,14.37
2023-04-13T14:25:30.084Z,14.73
2023-04-13T14:30:30.870Z,15.05
2023-04-13T14:35:31.499Z,14.20
2023-04-13T14:40:33.484Z,14.60
2023-04-13T14:45:34.342Z,14.45
2023-04-13T14:50:34.986Z,14.35
2023-04-13T14:55:37.038Z,14.57
2023-04-13T15:00:41.029Z,14.54
2023-04-13T15:05:42.314Z,14.70
2023-04-13T15:10:44.515Z,14.63
2023-04-13T15:15:46.407Z,14.10
2023-04-13T15:20:47.178Z,14.31
2023-04-13T15:25:49.082Z,14.35
2023-04-13T15:30:51.785Z,14.48
2023-04-13T15:35:53.545Z,14.39
2023-04-13T15:40:55.640Z,14.07
2023-04-13T15:45:56.509Z,14.15
2023-04-13T15:51:00.817Z,14.05
2023-04-13T15:56:02.758Z,14.15
2023-04-13T16:01:05.086Z,13.95
2023-04-13T16:06:05.863Z,14.14
2023-04-13T16:11:07.834Z,14.39
2023-04-13T16:16:08.975Z,14.44
2023-04-13T16:21:10.881Z,14.50
2023-04-13T16:26:13.129Z,14.30
2023-04-13T16:31:13.778Z,13.94
2023-04-13T16:36:14.346Z,13.81
2023-04-13T16:41:16.827Z,13.87
2023-04-13T16:46:17.566Z,14.05
2023-04-13T16:51:18.168Z,13.79
2023-04-13T16:56:21.905Z,13.49
2023-04-13T17:01:22.588Z,13.32
2023-04-13T17:06:23.182Z,12.99
2023-04-13T17:11:25.274Z,13.01
2023-04-13T17:16:29.164Z,12.88
2023-04-13T17:21:29.805Z,12.80
2023-04-13T17:26:32.354Z,12.72
2023-04-13T17:31:32.985Z,12.60
2023-04-13T17:36:33.712Z,12.47
2023-04-13T17:41:36.049Z,12.25
2023-04-13T17:46:36.784Z,12.09
2023-04-13T17:51:37.412Z,11.88
2023-04-13T17:56:41.881Z,11.80
2023-04-13T18:01:44.011Z,11.56
2023-04-13T18:06:45.152Z,11.36
2023-04-13T18:11:47.496Z,11.31
2023-04-13T18:16:48.194Z,11.13
2023-04-13T18:21:48.906Z,11.10
2023-04-13T18:26:51.806Z,11.03
2023-04-13T18:31:52.540Z,11.13
2023-04-13T18:36:53.236Z,11.20
2023-04-13T18:41:55.251Z,11.19
2023-04-13T18:46:56.060Z,11.20
2023-04-13T18:51:56.821Z,11.22
2023-04-13T18:56:58.895Z,11.31
2023-04-13T19:01:59.723Z,11.17
2023-04-13T19:07:00.433Z,11.13
2023-04-13T19:12:03.607Z,11.15
2023-04-13T19:17:05.768Z,11.11
2023-04-13T19:22:06.468Z,11.04
2023-04-13T19:27:08.418Z,10.82
2023-04-13T19:32:12.724Z,10.67
2023-04-13T19:37:13.321Z,10.50
2023-04-13T19:42:15.460Z,10.39
2023-04-13T19:47:16.053Z,10.37
2023-04-13T19:52:17.028Z,10.30
2023-04-13T19:57:19.271Z,10.22
2023-04-13T20:02:20.114Z,10.16
2023-04-13T20:07:20.875Z,10.10
2023-04-13T20:12:22.791Z,10.15
2023-04-13T20:17:23.454Z,10.01
2023-04-13T20:22:26.254Z,10.00
2023-04-13T20:27:29.697Z,9.90
2023-04-13T20:32:30.580Z,9.99
2023-04-13T20:37:31.292Z,10.04
2023-04-13T20:42:33.542Z,10.08
2023-04-13T20:47:35.603Z,10.07
2023-04-13T20:52:36.744Z,9.90
2023-04-13T20:57:41.750Z,9.91
2023-04-13T21:02:43.375Z,9.74
2023-04-13T21:07:45.324Z,9.63
2023-04-13T21:12:47.284Z,9.52
2023-04-13T21:17:48.871Z,9.43
2023-04-13T21:22:49.489Z,9.44
2023-04-13T21:27:51.473Z,9.27
2023-04-13T21:32:52.172Z,9.30
2023-04-13T21:37:52.858Z,9.50
2023-04-13T21:42:55.040Z,9.50
2023-04-13T21:47:55.696Z,9.61
2023-04-13T21:52:56.536Z,9.56
2023-04-13T21:57:58.562Z,9.54
2023-04-13T22:02:59.350Z,9.44
2023-04-13T22:08:00.219Z,9.42
2023-04-13T22:13:02.216Z,9.32
2023-04-13T22:18:02.862Z,9.21
2023-04-13T22:23:03.448Z,9.20
2023-04-13T22:28:05.943Z,9.14
2023-04-13T22:33:06.934Z,9.05
2023-04-13T22:38:07.529Z,9.11
2023-04-13T22:43:09.483Z,9.06
2023-04-13T22:48:10.077Z,9.04
2023-04-13T22:53:10.766Z,8.95
2023-04-13T22:58:12.730Z,8.95
2023-04-13T23:03:13.524Z,8.96
2023-04-13T23:08:14.339Z,8.88
2023-04-13T23:13:16.316Z,8.97
2023-04-13T23:18:16.919Z,9.05
2023-04-13T23:23:17.531Z,8.98
2023-04-13T23:28:19.470Z,9.02
2023-04-13T23:33:21.222Z,8.99
2023-04-13T23:38:21.830Z,8.94
2023-04-13T23:43:24.038Z,8.94
2023-04-13T23:48:26.168Z,8.91
2023-04-13T23:53:26.763Z,8.93
2023-04-13T23:58:28.722Z,8.84
